createdAt,value
2018-02-22T00:00:45.631Z,24.90
2018-02-22T00:01:45.622Z,24.90
2018-02-22T00:02:45.622Z,24.82
2018-02-22T00:03:45.620Z,24.82
2018-02-22T00:04:45.607Z,24.71
2018-02-22T00:05:45.612Z,24.74
2018-02-22T00:06:45.611Z,24.79
2018-02-22T00:07:45.615Z,24.82
2018-02-22T00:08:45.603Z,24.90
2018-02-22T00:09:45.598Z,24.90
2018-02-22T00:10:45.584Z,24.89
2018-02-22T00:11:45.692Z,24.82
2018-02-22T00:12:45.584Z,24.84
2018-02-22T00:13:45.585Z,24.90
2018-02-22T00:14:45.568Z,24.92
2018-02-22T00:15:45.578Z,24.92
2018-02-22T00:16:45.563Z,24.86
2018-02-22T00:17:45.568Z,24.71
2018-02-22T00:18:45.562Z,24.68
2018-02-22T00:19:45.557Z,24.64
2018-02-22T00:20:45.550Z,24.64
2018-02-22T00:21:45.550Z,24.67
2018-02-22T00:22:45.544Z,24.61
2018-02-22T00:23:45.543Z,24.59
2018-02-22T00:24:45.529Z,24.49
2018-02-22T00:25:45.537Z,24.59
2018-02-22T00:26:45.536Z,24.45
2018-02-22T00:27:45.525Z,24.48
2018-02-22T00:28:45.525Z,24.48
2018-02-22T00:29:45.511Z,24.44
2018-02-22T00:30:45.513Z,24.53
2018-02-22T00:31:45.505Z,24.52
2018-02-22T00:32:45.502Z,24.55
2018-02-22T00:33:45.500Z,24.60
2018-02-22T00:34:45.499Z,24.59
2018-02-22T00:35:45.494Z,24.64
2018-02-22T00:36:45.484Z,24.60
2018-02-22T00:37:45.486Z,24.60
2018-02-22T00:38:45.476Z,24.64
2018-02-22T00:39:45.471Z,24.61
2018-02-22T00:40:45.470Z,24.64
2018-02-22T00:41:45.470Z,24.67
2018-02-22T00:42:45.465Z,24.71
2018-02-22T00:43:45.462Z,24.70
2018-02-22T00:44:45.460Z,24.74
2018-02-22T00:45:45.445Z,24.67
2018-02-22T00:46:45.444Z,24.74
2018-02-22T00:47:45.447Z,24.80
2018-02-22T00:48:45.438Z,24.70
2018-02-22T00:49:45.420Z,24.64
2018-02-22T00:50:45.417Z,24.48
2018-02-22T00:51:45.431Z,24.64
2018-02-22T00:52:45.424Z,24.55
2018-02-22T00:53:45.419Z,24.61
2018-02-22T00:54:45.424Z,24.60
2018-02-22T00:55:45.406Z,24.66
2018-02-22T00:56:45.395Z,24.67
2018-02-22T00:57:45.388Z,24.59
2018-02-22T00:58:45.399Z,24.60
2018-02-22T00:59:45.500Z,24.52
2018-02-22T01:00:45.376Z,24.61
2018-02-22T01:01:45.372Z,24.56
2018-02-22T01:02:45.369Z,24.56
2018-02-22T01:03:45.384Z,24.67
2018-02-22T01:04:45.360Z,24.60
2018-02-22T01:05:45.371Z,24.60
2018-02-22T01:06:45.368Z,24.64
2018-02-22T01:07:45.349Z,24.74
2018-02-22T01:08:45.363Z,24.67
2018-02-22T01:09:45.346Z,24.53
2018-02-22T01:10:45.337Z,24.68
2018-02-22T01:11:45.350Z,24.63
2018-02-22T01:12:45.342Z,24.61
2018-02-22T01:13:45.326Z,24.60
2018-02-22T01:14:45.322Z,24.55
2018-02-22T01:15:45.335Z,24.46
2018-02-22T01:16:45.308Z,24.51
2018-02-22T01:17:45.327Z,24.44
2018-02-22T01:18:45.323Z,24.46
2018-02-22T01:19:45.303Z,24.49
2018-02-22T01:20:45.302Z,24.36
2018-02-22T01:21:45.312Z,24.36
2018-02-22T01:22:45.296Z,24.44
2018-02-22T01:23:45.283Z,24.46
2018-02-22T01:24:45.303Z,24.44
2018-02-22T01:25:45.273Z,24.46
2018-02-22T01:26:45.291Z,24.44
2018-02-22T01:27:45.274Z,24.48
2018-02-22T01:28:45.278Z,24.51
2018-02-22T01:29:45.278Z,24.60
2018-02-22T01:30:45.279Z,24.52
2018-02-22T01:31:45.271Z,24.52
2018-02-22T01:32:45.265Z,24.61
2018-02-22T01:33:45.280Z,24.51
2018-02-22T01:34:45.237Z,24.49
2018-02-22T01:35:45.255Z,24.56
2018-02-22T01:36:45.228Z,24.61
2018-02-22T01:37:45.247Z,24.49
2018-02-22T01:38:45.242Z,24.56
2018-02-22T01:39:45.238Z,24.46
2018-02-22T01:40:45.235Z,24.66
2018-02-22T01:41:45.218Z,24.53
2018-02-22T01:42:45.210Z,24.53
2018-02-22T01:43:45.201Z,24.53
2018-02-22T01:44:45.213Z,24.60
2018-02-22T01:45:45.201Z,24.51
2018-02-22T01:46:45.194Z,24.59
2018-02-22T01:47:45.196Z,24.51
2018-02-22T01:48:45.181Z,24.53
2018-02-22T01:49:45.186Z,24.42
2018-02-22T01:50:45.187Z,24.46
2018-02-22T01:51:45.168Z,24.59
2018-02-22T01:52:45.178Z,24.53
2018-02-22T01:53:45.165Z,24.49
2018-02-22T01:54:45.162Z,24.49
2018-02-22T01:55:45.152Z,24.53
2018-02-22T01:56:45.170Z,24.49
2018-02-22T01:57:45.163Z,24.34
2018-02-22T01:58:45.159Z,24.36
2018-02-22T01:59:45.159Z,24.34
2018-02-22T02:00:45.151Z,24.34
2018-02-22T02:01:45.144Z,24.44
2018-02-22T02:02:45.151Z,24.45
2018-02-22T02:03:45.136Z,24.44
2018-02-22T02:04:45.130Z,24.31
2018-02-22T02:05:45.133Z,24.29
2018-02-22T02:06:45.133Z,24.36
2018-02-22T02:07:45.128Z,24.31
2018-02-22T02:08:45.122Z,24.27
2018-02-22T02:09:45.120Z,24.34
2018-02-22T02:10:45.122Z,24.39
2018-02-22T02:11:45.111Z,24.34
2018-02-22T02:12:45.106Z,24.34
2018-02-22T02:13:45.102Z,24.27
2018-02-22T02:14:45.096Z,24.31
2018-02-22T02:15:45.096Z,24.26
2018-02-22T02:16:45.083Z,24.26
2018-02-22T02:17:45.081Z,24.23
2018-02-22T02:18:45.082Z,24.15
2018-02-22T02:19:45.076Z,24.18
2018-02-22T02:20:45.085Z,24.24
2018-02-22T02:21:45.063Z,24.18
2018-02-22T02:22:45.053Z,24.19
2018-02-22T02:23:45.061Z,24.24
2018-02-22T02:24:45.057Z,24.11
2018-02-22T02:25:45.048Z,24.09
2018-02-22T02:26:45.053Z,24.02
2018-02-22T02:27:45.032Z,24.08
2018-02-22T02:28:45.040Z,23.99
2018-02-22T02:29:45.038Z,24.05
2018-02-22T02:30:45.015Z,23.99
2018-02-22T02:31:45.024Z,24.04
2018-02-22T02:32:45.027Z,24.02
2018-02-22T02:33:45.001Z,24.05
2018-02-22T02:34:44.997Z,24.02
2018-02-22T02:35:44.988Z,24.05
2018-02-22T02:36:44.992Z,24.12
2018-02-22T02:37:44.997Z,24.11
2018-02-22T02:38:44.997Z,24.12
2018-02-22T02:39:44.988Z,24.15
2018-02-22T02:40:45.041Z,24.06
2018-02-22T02:41:44.968Z,24.11
2018-02-22T02:42:44.983Z,24.11
2018-02-22T02:43:44.975Z,24.18
2018-02-22T02:44:44.949Z,24.18
2018-02-22T02:45:44.970Z,24.15
2018-02-22T02:46:44.940Z,24.26
2018-02-22T02:47:44.958Z,24.15
2018-02-22T02:48:44.956Z,24.15
2018-02-22T02:49:44.933Z,24.16
2018-02-22T02:50:44.940Z,24.16
2018-02-22T02:51:44.920Z,24.18
2018-02-22T02:52:44.933Z,24.27
2018-02-22T02:53:45.032Z,24.14
2018-02-22T02:54:44.932Z,24.18
2018-02-22T02:55:44.914Z,24.21
2018-02-22T02:56:44.923Z,24.21
2018-02-22T02:57:44.898Z,24.18
2018-02-22T02:58:44.895Z,24.23
2018-02-22T02:59:45.002Z,24.14
2018-02-22T03:00:44.898Z,24.19
2018-02-22T03:01:44.894Z,24.09
2018-02-22T03:02:44.897Z,24.09
2018-02-22T03:03:44.873Z,24.09
2018-02-22T03:04:44.872Z,24.15
2018-02-22T03:05:44.868Z,24.06
2018-02-22T03:06:44.853Z,24.06
2018-02-22T03:07:44.876Z,23.99
2018-02-22T03:08:44.871Z,24.00
2018-02-22T03:09:44.850Z,24.00
2018-02-22T03:10:44.863Z,24.02
2018-02-22T03:11:44.838Z,23.92
2018-02-22T03:12:44.833Z,23.86
2018-02-22T03:13:44.837Z,23.82
2018-02-22T03:14:44.819Z,23.75
2018-02-22T03:15:44.833Z,23.77
2018-02-22T03:16:44.821Z,23.77
2018-02-22T03:17:44.805Z,23.74
2018-02-22T03:18:44.828Z,23.72
2018-02-22T03:19:44.807Z,23.77
2018-02-22T03:20:44.819Z,23.69
2018-02-22T03:21:44.817Z,23.77
2018-02-22T03:22:44.796Z,23.69
2018-02-22T03:23:44.885Z,23.79
2018-02-22T03:24:44.784Z,23.81
2018-02-22T03:25:44.779Z,23.78
2018-02-22T03:26:44.792Z,23.71
2018-02-22T03:27:44.767Z,23.72
2018-02-22T03:28:44.762Z,23.74
2018-02-22T03:29:44.763Z,23.63
2018-02-22T03:30:44.758Z,23.78
2018-02-22T03:31:44.766Z,23.87
2018-02-22T03:32:44.764Z,23.89
2018-02-22T03:33:44.810Z,23.86
2018-02-22T03:34:44.753Z,23.89
2018-02-22T03:35:44.753Z,23.86
2018-02-22T03:36:44.743Z,23.84
2018-02-22T03:37:44.740Z,23.82
2018-02-22T03:38:44.736Z,23.94
2018-02-22T03:39:44.732Z,23.82
2018-02-22T03:40:44.728Z,23.84
2018-02-22T03:41:44.719Z,23.75
2018-02-22T03:42:44.721Z,23.79
2018-02-22T03:43:44.716Z,23.84
2018-02-22T03:44:44.705Z,23.77
2018-02-22T03:45:44.708Z,23.74
2018-02-22T03:46:44.701Z,23.72
2018-02-22T03:47:44.796Z,23.74
2018-02-22T03:48:44.694Z,23.79
2018-02-22T03:49:44.683Z,23.68
2018-02-22T03:50:44.681Z,23.62
2018-02-22T03:51:44.675Z,23.75
2018-02-22T03:52:44.673Z,23.71
2018-02-22T03:53:44.672Z,23.79
2018-02-22T03:54:44.663Z,23.72
2018-02-22T03:55:44.663Z,23.71
2018-02-22T03:56:44.653Z,23.69
2018-02-22T03:57:44.647Z,23.78
2018-02-22T03:58:44.643Z,23.71
2018-02-22T03:59:44.640Z,23.74
2018-02-22T04:00:44.639Z,23.75
2018-02-22T04:01:44.678Z,23.77
2018-02-22T04:02:44.632Z,23.69
2018-02-22T04:03:44.620Z,23.72
2018-02-22T04:04:44.617Z,23.77
2018-02-22T04:05:44.614Z,23.77
2018-02-22T04:06:44.610Z,23.77
2018-02-22T04:07:44.606Z,23.86
2018-02-22T04:08:44.596Z,23.86
2018-02-22T04:09:44.597Z,23.84
2018-02-22T04:10:44.592Z,23.87
2018-02-22T04:11:44.583Z,23.78
2018-02-22T04:12:44.584Z,23.77
2018-02-22T04:13:44.574Z,23.82
2018-02-22T04:14:44.573Z,23.86
2018-02-22T04:15:44.565Z,23.82
2018-02-22T04:16:44.560Z,23.84
2018-02-22T04:17:44.556Z,23.86
2018-02-22T04:18:44.556Z,23.87
2018-02-22T04:19:44.553Z,23.89
2018-02-22T04:20:44.546Z,23.84
2018-02-22T04:21:44.546Z,23.82
2018-02-22T04:22:44.539Z,23.81
2018-02-22T04:23:44.632Z,23.71
2018-02-22T04:24:44.524Z,23.75
2018-02-22T04:25:44.524Z,23.72
2018-02-22T04:26:44.519Z,23.71
2018-02-22T04:27:44.514Z,23.68
2018-02-22T04:28:44.510Z,23.79
2018-02-22T04:29:44.604Z,23.62
2018-02-22T04:30:44.506Z,23.67
2018-02-22T04:31:44.493Z,23.62
2018-02-22T04:32:44.490Z,23.62
2018-02-22T04:33:44.483Z,23.63
2018-02-22T04:34:44.484Z,23.60
2018-02-22T04:35:44.475Z,23.74
2018-02-22T04:36:44.470Z,23.67
2018-02-22T04:37:44.472Z,23.62
2018-02-22T04:38:44.463Z,23.68
2018-02-22T04:39:44.463Z,23.62
2018-02-22T04:40:44.455Z,23.52
2018-02-22T04:41:44.453Z,23.50
2018-02-22T04:42:44.450Z,23.64
2018-02-22T04:43:44.444Z,23.53
2018-02-22T04:44:44.439Z,23.44
2018-02-22T04:45:44.435Z,23.50
2018-02-22T04:46:44.431Z,23.54
2018-02-22T04:47:44.422Z,23.47
2018-02-22T04:48:44.417Z,23.50
2018-02-22T04:49:44.412Z,23.45
2018-02-22T04:50:44.403Z,23.50
2018-02-22T04:51:44.404Z,23.52
2018-02-22T04:52:44.394Z,23.53
2018-02-22T04:53:44.499Z,23.59
2018-02-22T04:54:44.385Z,23.52
2018-02-22T04:55:44.390Z,23.52
2018-02-22T04:56:44.384Z,23.39
2018-02-22T04:57:44.380Z,23.45
2018-02-22T04:58:44.375Z,23.50
2018-02-22T04:59:44.467Z,23.50
2018-02-22T05:00:44.366Z,23.44
2018-02-22T05:01:44.357Z,23.35
2018-02-22T05:02:44.357Z,23.34
2018-02-22T05:03:44.352Z,23.26
2018-02-22T05:04:44.348Z,23.26
2018-02-22T05:05:44.341Z,23.34
2018-02-22T05:06:44.337Z,23.31
2018-02-22T05:07:44.333Z,23.23
2018-02-22T05:08:44.327Z,23.35
2018-02-22T05:09:44.313Z,23.25
2018-02-22T05:10:44.314Z,23.21
2018-02-22T05:11:44.409Z,23.21
2018-02-22T05:12:44.300Z,23.14
2018-02-22T05:13:44.303Z,23.18
2018-02-22T05:14:44.298Z,23.18
2018-02-22T05:15:44.284Z,23.16
2018-02-22T05:16:44.286Z,23.18
2018-02-22T05:17:44.275Z,23.12
2018-02-22T05:18:44.272Z,23.00
2018-02-22T05:19:44.268Z,22.91
2018-02-22T05:20:44.242Z,22.75
2018-02-22T05:21:44.246Z,22.75
2018-02-22T05:22:44.257Z,22.81
2018-02-22T05:23:44.329Z,22.75
2018-02-22T05:24:44.243Z,22.78
2018-02-22T05:25:44.272Z,22.81
2018-02-22T05:26:44.232Z,22.85
2018-02-22T05:27:44.215Z,22.85
2018-02-22T05:28:44.202Z,22.88
2018-02-22T05:29:44.213Z,22.84
2018-02-22T05:30:44.198Z,22.78
2018-02-22T05:31:44.202Z,22.89
2018-02-22T05:32:44.196Z,22.91
2018-02-22T05:33:44.191Z,22.82
2018-02-22T05:34:44.182Z,22.79
2018-02-22T05:35:44.176Z,22.75
2018-02-22T05:36:44.176Z,22.76
2018-02-22T05:37:44.157Z,22.72
2018-02-22T05:38:44.166Z,22.63
2018-02-22T05:39:44.162Z,22.64
2018-02-22T05:40:44.141Z,22.84
2018-02-22T05:41:44.156Z,22.85
2018-02-22T05:42:44.155Z,22.88
2018-02-22T05:43:44.126Z,22.88
2018-02-22T05:44:44.130Z,22.84
2018-02-22T05:45:44.117Z,22.82
2018-02-22T05:46:44.134Z,22.93
2018-02-22T05:47:44.111Z,22.96
2018-02-22T05:48:44.120Z,23.01
2018-02-22T05:49:44.119Z,23.00
2018-02-22T05:50:44.106Z,22.97
2018-02-22T05:51:44.103Z,22.94
2018-02-22T05:52:44.104Z,23.00
2018-02-22T05:53:44.184Z,23.00
2018-02-22T05:54:44.093Z,22.86
2018-02-22T05:55:44.075Z,22.89
2018-02-22T05:56:44.079Z,22.89
2018-02-22T05:57:44.063Z,22.88
2018-02-22T05:58:44.055Z,22.86
2018-02-22T05:59:44.064Z,22.85
2018-02-22T06:00:44.059Z,22.82
2018-02-22T06:01:44.044Z,22.84
2018-02-22T06:02:44.028Z,22.94
2018-02-22T06:03:44.048Z,22.93
2018-02-22T06:04:44.042Z,22.81
2018-02-22T06:05:44.013Z,22.91
2018-02-22T06:06:44.032Z,22.91
2018-02-22T06:07:47.060Z,22.88
2018-02-22T06:08:44.023Z,22.88
2018-02-22T06:09:44.005Z,22.88
2018-02-22T06:14:43.989Z,22.76
2018-02-22T06:15:43.972Z,22.89
2018-02-22T06:16:43.981Z,22.89
2018-02-22T06:17:43.977Z,22.84
2018-02-22T06:18:43.951Z,22.89
2018-02-22T06:19:43.952Z,22.86
2018-02-22T06:20:43.944Z,22.79
2018-02-22T06:21:43.936Z,22.86
2018-02-22T06:22:43.931Z,22.78
2018-02-22T06:23:43.930Z,22.86
2018-02-22T06:24:43.925Z,22.82
2018-02-22T06:25:43.920Z,22.82
2018-02-22T06:26:43.915Z,22.76
2018-02-22T06:27:43.923Z,22.78
2018-02-22T06:28:43.904Z,22.86
2018-02-22T06:29:43.911Z,22.84
2018-02-22T06:30:43.894Z,22.78
2018-02-22T06:31:43.907Z,22.75
2018-02-22T06:32:43.897Z,22.74
2018-02-22T06:33:43.876Z,22.78
2018-02-22T06:34:43.890Z,22.63
2018-02-22T06:35:43.864Z,22.72
2018-02-22T06:36:43.858Z,22.67
2018-02-22T06:37:43.879Z,22.70
2018-02-22T06:38:43.866Z,22.66
2018-02-22T06:39:43.860Z,22.64
2018-02-22T06:40:43.856Z,22.63
2018-02-22T06:41:43.850Z,22.60
2018-02-22T06:42:43.827Z,22.59
2018-02-22T06:43:43.827Z,22.61
2018-02-22T06:44:43.812Z,22.67
2018-02-22T06:45:43.808Z,22.74
2018-02-22T06:46:43.811Z,22.78
2018-02-22T06:47:43.802Z,22.75
2018-02-22T06:48:43.801Z,22.74
2018-02-22T06:49:43.813Z,22.66
2018-02-22T06:50:43.890Z,22.70
2018-02-22T06:51:43.782Z,22.61
2018-02-22T06:52:43.787Z,22.61
2018-02-22T06:53:43.774Z,22.66
2018-02-22T06:54:43.789Z,22.72
2018-02-22T06:55:43.781Z,22.72
2018-02-22T06:56:43.755Z,22.66
2018-02-22T06:57:43.744Z,22.67
2018-02-22T06:58:43.769Z,22.67
2018-02-22T06:59:43.754Z,22.67
2018-02-22T07:00:43.751Z,22.67
2018-02-22T07:01:43.751Z,22.60
2018-02-22T07:02:43.841Z,22.63
2018-02-22T07:03:43.736Z,22.51
2018-02-22T07:04:43.734Z,22.52
2018-02-22T07:05:43.720Z,22.48
2018-02-22T07:06:43.717Z,22.46
2018-02-22T07:07:43.715Z,22.42
2018-02-22T07:08:43.709Z,22.44
2018-02-22T07:09:43.709Z,22.38
2018-02-22T07:10:43.694Z,22.35
2018-02-22T07:11:43.699Z,22.27
2018-02-22T07:12:43.683Z,22.35
2018-02-22T07:13:43.683Z,22.27
2018-02-22T07:14:43.678Z,22.29
2018-02-22T07:15:43.677Z,22.31
2018-02-22T07:16:43.667Z,22.30
2018-02-22T07:17:43.661Z,22.41
2018-02-22T07:18:43.656Z,22.42
2018-02-22T07:19:43.651Z,22.38
2018-02-22T07:20:43.649Z,22.42
2018-02-22T07:21:43.643Z,22.44
2018-02-22T07:22:43.638Z,22.42
2018-02-22T07:23:43.629Z,22.42
2018-02-22T07:24:43.623Z,22.51
2018-02-22T07:25:43.622Z,22.48
2018-02-22T07:26:43.613Z,22.52
2018-02-22T07:27:43.672Z,22.59
2018-02-22T07:28:43.604Z,22.49
2018-02-22T07:29:43.602Z,22.48
2018-02-22T07:30:43.595Z,22.51
2018-02-22T07:31:43.586Z,22.46
2018-02-22T07:32:43.580Z,22.49
2018-02-22T07:33:43.558Z,22.56
2018-02-22T07:34:43.552Z,22.46
2018-02-22T07:35:43.570Z,22.49
2018-02-22T07:36:43.563Z,22.57
2018-02-22T07:37:43.558Z,22.52
2018-02-22T07:38:43.638Z,22.61
2018-02-22T07:39:43.543Z,22.61
2018-02-22T07:40:43.542Z,22.64
2018-02-22T07:41:43.537Z,22.70
2018-02-22T07:42:43.515Z,22.60
2018-02-22T07:43:43.527Z,22.60
2018-02-22T07:44:43.521Z,22.57
2018-02-22T07:45:43.515Z,22.51
2018-02-22T07:46:43.511Z,22.49
2018-02-22T07:47:43.506Z,22.49
2018-02-22T07:48:43.501Z,22.52
2018-02-22T07:49:43.495Z,22.63
2018-02-22T07:50:43.489Z,22.57
2018-02-22T07:51:43.466Z,22.60
2018-02-22T07:52:43.478Z,22.64
2018-02-22T07:53:43.472Z,22.60
2018-02-22T07:54:43.468Z,22.69
2018-02-22T07:55:43.463Z,22.66
2018-02-22T07:56:43.439Z,22.61
2018-02-22T07:57:43.434Z,22.57
2018-02-22T07:58:43.429Z,22.59
2018-02-22T07:59:43.424Z,22.59
2018-02-22T08:00:43.435Z,22.61
2018-02-22T08:01:43.563Z,22.60
2018-02-22T08:02:43.409Z,22.63
2018-02-22T08:03:43.403Z,22.64
2018-02-22T08:04:43.393Z,22.60
2018-02-22T08:05:43.389Z,22.56
2018-02-22T08:06:43.387Z,22.60
2018-02-22T08:07:43.399Z,22.52
2018-02-22T08:08:43.393Z,22.59
2018-02-22T08:09:43.387Z,22.51
2018-02-22T08:10:43.378Z,22.52
2018-02-22T08:11:43.377Z,22.46
2018-02-22T08:12:43.371Z,22.51
2018-02-22T08:13:43.466Z,22.49
2018-02-22T08:14:43.361Z,22.49
2018-02-22T08:15:43.355Z,22.49
2018-02-22T08:16:43.358Z,22.51
2018-02-22T08:17:43.344Z,22.49
2018-02-22T08:18:43.334Z,22.51
2018-02-22T08:19:43.329Z,22.44
2018-02-22T08:20:43.327Z,22.36
2018-02-22T08:21:43.323Z,22.44
2018-02-22T08:22:43.316Z,22.44
2018-02-22T08:23:43.311Z,22.42
2018-02-22T08:24:43.306Z,22.30
2018-02-22T08:25:43.295Z,22.26
2018-02-22T08:26:43.290Z,22.35
2018-02-22T08:27:43.285Z,22.30
2018-02-22T08:28:43.278Z,22.30
2018-02-22T08:29:43.275Z,22.41
2018-02-22T08:30:43.268Z,22.24
2018-02-22T08:31:43.264Z,22.27
2018-02-22T08:32:43.256Z,22.26
2018-02-22T08:33:43.251Z,22.30
2018-02-22T08:34:43.246Z,22.29
2018-02-22T08:35:43.244Z,22.31
2018-02-22T08:36:43.234Z,22.24
2018-02-22T08:37:43.232Z,22.21
2018-02-22T08:38:43.222Z,22.39
2018-02-22T08:39:43.217Z,22.33
2018-02-22T08:40:43.214Z,22.21
2018-02-22T08:41:43.207Z,22.27
2018-02-22T08:42:43.198Z,22.17
2018-02-22T08:43:43.297Z,22.17
2018-02-22T08:44:43.196Z,22.19
2018-02-22T08:45:43.185Z,22.23
2018-02-22T08:46:43.175Z,22.29
2018-02-22T08:47:43.174Z,22.35
2018-02-22T08:48:43.169Z,22.39
2018-02-22T08:49:43.258Z,22.46
2018-02-22T08:50:43.157Z,22.44
2018-02-22T08:51:43.151Z,22.45
2018-02-22T08:52:43.144Z,22.45
2018-02-22T08:53:43.139Z,22.44
2018-02-22T08:54:43.134Z,22.42
2018-02-22T08:55:43.229Z,22.42
2018-02-22T08:56:43.118Z,22.42
2018-02-22T08:57:43.117Z,22.46
2018-02-22T08:58:43.112Z,22.45
2018-02-22T08:59:43.106Z,22.44
2018-02-22T09:00:43.100Z,22.44
2018-02-22T09:01:43.094Z,22.49
2018-02-22T09:02:43.089Z,22.48
2018-02-22T09:03:43.085Z,22.44
2018-02-22T09:04:43.078Z,22.48
2018-02-22T09:05:43.073Z,22.42
2018-02-22T09:06:43.064Z,22.33
2018-02-22T09:07:43.062Z,22.38
2018-02-22T09:08:43.058Z,22.27
2018-02-22T09:09:43.051Z,22.29
2018-02-22T09:10:43.046Z,22.27
2018-02-22T09:11:43.040Z,22.33
2018-02-22T09:12:43.034Z,22.42
2018-02-22T09:13:43.029Z,22.44
2018-02-22T09:14:43.026Z,22.45
2018-02-22T09:15:43.042Z,22.45
2018-02-22T09:16:43.011Z,22.46
2018-02-22T09:17:43.009Z,22.46
2018-02-22T09:18:43.000Z,22.46
2018-02-22T09:19:42.995Z,22.39
2018-02-22T09:20:42.993Z,22.41
2018-02-22T09:21:42.988Z,22.30
2018-02-22T09:22:42.982Z,22.31
2018-02-22T09:23:42.978Z,22.29
2018-02-22T09:24:42.973Z,22.36
2018-02-22T09:25:42.966Z,22.26
2018-02-22T09:26:42.956Z,22.41
2018-02-22T09:27:42.951Z,22.36
2018-02-22T09:28:42.949Z,22.44
2018-02-22T09:29:42.943Z,22.45
2018-02-22T09:30:42.938Z,22.48
2018-02-22T09:31:42.934Z,22.45
2018-02-22T09:32:42.930Z,22.48
2018-02-22T09:33:42.922Z,22.48
2018-02-22T09:34:42.912Z,22.59
2018-02-22T09:35:42.912Z,22.59
2018-02-22T09:36:42.907Z,22.64
2018-02-22T09:37:42.900Z,22.67
2018-02-22T09:38:42.895Z,22.59
2018-02-22T09:39:42.892Z,22.57
2018-02-22T09:40:42.883Z,22.56
2018-02-22T09:41:42.874Z,22.52
2018-02-22T09:42:42.875Z,22.52
2018-02-22T09:43:42.870Z,22.54
2018-02-22T09:44:42.859Z,22.49
2018-02-22T09:45:42.857Z,22.38
2018-02-22T09:46:42.852Z,22.45
2018-02-22T09:47:42.847Z,22.45
2018-02-22T09:48:42.823Z,22.46
2018-02-22T09:49:42.819Z,22.51
2018-02-22T09:50:42.809Z,22.46
2018-02-22T09:51:42.824Z,22.52
2018-02-22T09:52:42.812Z,22.48
2018-02-22T09:53:42.794Z,22.52
2018-02-22T09:54:42.802Z,22.46
2018-02-22T09:55:42.796Z,22.54
2018-02-22T09:56:42.776Z,22.48
2018-02-22T09:57:42.790Z,22.49
2018-02-22T09:58:42.781Z,22.54
2018-02-22T09:59:42.765Z,22.52
2018-02-22T10:00:42.768Z,22.61
2018-02-22T10:01:42.768Z,22.57
2018-02-22T10:02:42.745Z,22.63
2018-02-22T10:03:42.757Z,22.63
2018-02-22T10:04:42.733Z,22.66
2018-02-22T10:05:42.747Z,22.72
2018-02-22T10:06:42.726Z,22.74
2018-02-22T10:07:42.726Z,22.76
2018-02-22T10:08:42.706Z,22.78
2018-02-22T10:09:42.706Z,22.75
2018-02-22T10:10:42.711Z,22.82
2018-02-22T10:11:42.696Z,22.93
2018-02-22T10:12:42.709Z,22.91
2018-02-22T10:13:42.699Z,22.94
2018-02-22T10:14:42.695Z,22.94
2018-02-22T10:15:42.679Z,23.06
2018-02-22T10:16:42.669Z,23.00
2018-02-22T10:17:42.679Z,22.97
2018-02-22T10:18:42.678Z,22.97
2018-02-22T10:19:42.650Z,23.00
2018-02-22T10:20:42.649Z,22.93
2018-02-22T10:21:42.647Z,22.97
2018-02-22T10:22:42.639Z,22.97
2018-02-22T10:23:42.654Z,22.99
2018-02-22T10:24:42.643Z,23.01
2018-02-22T10:25:42.639Z,22.96
2018-02-22T10:26:42.619Z,23.00
2018-02-22T10:27:42.618Z,22.97
2018-02-22T10:28:42.618Z,23.03
2018-02-22T10:29:42.617Z,23.04
2018-02-22T10:30:42.643Z,23.00
2018-02-22T10:31:42.688Z,22.96
2018-02-22T10:32:42.597Z,22.94
2018-02-22T10:33:42.602Z,22.93
2018-02-22T10:34:42.597Z,23.00
2018-02-22T10:35:42.569Z,23.09
2018-02-22T10:36:42.586Z,23.15
2018-02-22T10:37:42.574Z,23.22
2018-02-22T10:38:42.568Z,23.23
2018-02-22T10:39:42.548Z,23.26
2018-02-22T10:40:42.565Z,23.31
2018-02-22T10:41:42.546Z,23.37
2018-02-22T10:42:42.539Z,23.47
2018-02-22T10:43:42.537Z,23.50
2018-02-22T10:44:42.546Z,23.52
2018-02-22T10:45:42.526Z,23.62
2018-02-22T10:46:42.522Z,23.62
2018-02-22T10:47:42.533Z,23.60
2018-02-22T10:48:42.512Z,23.59
2018-02-22T10:49:42.522Z,23.68
2018-02-22T10:50:42.503Z,23.64
2018-02-22T10:51:42.513Z,23.74
2018-02-22T10:52:42.498Z,23.60
2018-02-22T10:53:42.504Z,23.64
2018-02-22T10:54:42.490Z,23.68
2018-02-22T10:55:42.595Z,23.71
2018-02-22T10:56:42.474Z,23.69
2018-02-22T10:57:42.490Z,23.75
2018-02-22T10:58:42.466Z,23.67
2018-02-22T10:59:42.468Z,23.75
2018-02-22T11:00:42.455Z,23.77
2018-02-22T11:01:42.466Z,23.72
2018-02-22T11:02:42.452Z,23.67
2018-02-22T11:03:42.447Z,23.79
2018-02-22T11:04:42.451Z,23.75
2018-02-22T11:05:42.437Z,23.67
2018-02-22T11:06:42.442Z,23.78
2018-02-22T11:07:42.438Z,23.74
2018-02-22T11:08:42.422Z,23.77
2018-02-22T11:09:42.419Z,23.78
2018-02-22T11:10:42.425Z,23.79
2018-02-22T11:11:42.419Z,23.81
2018-02-22T11:12:42.414Z,23.92
2018-02-22T11:13:42.400Z,23.96
2018-02-22T11:14:42.404Z,23.92
2018-02-22T11:15:42.394Z,23.93
2018-02-22T11:16:42.387Z,24.02
2018-02-22T11:17:42.380Z,23.97
2018-02-22T11:18:42.389Z,23.96
2018-02-22T11:19:42.372Z,23.86
2018-02-22T11:20:42.366Z,23.90
2018-02-22T11:21:42.362Z,23.86
2018-02-22T11:22:42.388Z,23.86
2018-02-22T11:23:42.352Z,23.86
2018-02-22T11:24:42.347Z,23.86
2018-02-22T11:25:42.345Z,23.94
2018-02-22T11:26:42.343Z,24.00
2018-02-22T11:27:42.339Z,24.00
2018-02-22T11:28:42.329Z,24.02
2018-02-22T11:29:42.333Z,24.11
2018-02-22T11:30:42.319Z,24.14
2018-02-22T11:31:42.324Z,24.26
2018-02-22T11:32:42.315Z,24.37
2018-02-22T11:33:42.307Z,24.29
2018-02-22T11:34:42.296Z,24.36
2018-02-22T11:35:42.335Z,24.45
2018-02-22T11:36:42.282Z,24.53
2018-02-22T11:37:42.273Z,24.53
2018-02-22T11:38:42.270Z,24.71
2018-02-22T11:39:42.269Z,24.67
2018-02-22T11:40:42.269Z,24.67
2018-02-22T11:41:42.277Z,24.61
2018-02-22T11:42:42.262Z,24.66
2018-02-22T11:43:42.254Z,24.75
2018-02-22T11:44:42.243Z,24.80
2018-02-22T11:45:42.248Z,24.83
2018-02-22T11:46:42.244Z,24.92
2018-02-22T11:47:42.282Z,24.93
2018-02-22T11:48:42.240Z,24.97
2018-02-22T11:49:42.232Z,24.98
2018-02-22T11:50:42.225Z,24.99
2018-02-22T11:51:42.221Z,24.99
2018-02-22T11:52:42.230Z,24.93
2018-02-22T11:53:42.217Z,24.87
2018-02-22T11:54:42.213Z,24.83
2018-02-22T11:55:42.210Z,24.84
2018-02-22T11:56:42.200Z,24.77
2018-02-22T11:57:42.218Z,24.89
2018-02-22T11:58:42.193Z,24.86
2018-02-22T11:59:42.189Z,24.89
2018-02-22T12:00:42.339Z,24.90
2018-02-22T12:01:42.182Z,24.86
2018-02-22T12:02:42.181Z,24.92
2018-02-22T12:03:42.178Z,25.01
2018-02-22T12:04:42.176Z,24.94
2018-02-22T12:05:42.164Z,24.98
2018-02-22T12:06:42.164Z,24.92
2018-02-22T12:07:42.163Z,24.89
2018-02-22T12:08:42.155Z,24.92
2018-02-22T12:09:42.152Z,24.87
2018-02-22T12:10:42.148Z,24.89
2018-02-22T12:11:42.147Z,25.02
2018-02-22T12:12:42.130Z,24.97
2018-02-22T12:13:42.137Z,25.11
2018-02-22T12:14:42.132Z,25.29
2018-02-22T12:15:42.118Z,25.24
2018-02-22T12:16:42.123Z,25.34
2018-02-22T12:17:42.119Z,25.35
2018-02-22T12:18:42.122Z,25.35
2018-02-22T12:19:42.104Z,25.42
2018-02-22T12:20:42.098Z,25.39
2018-02-22T12:21:42.095Z,25.38
2018-02-22T12:22:42.350Z,25.45
2018-02-22T12:23:42.097Z,25.39
2018-02-22T12:24:42.092Z,25.41
2018-02-22T12:25:42.088Z,25.53
2018-02-22T12:26:42.086Z,25.60
2018-02-22T12:27:42.081Z,25.66
2018-02-22T12:28:43.116Z,25.69
2018-02-22T12:29:42.070Z,25.75
2018-02-22T12:30:42.066Z,25.85
2018-02-22T12:31:42.063Z,25.82
2018-02-22T12:32:42.061Z,25.86
2018-02-22T12:33:42.050Z,25.90
2018-02-22T12:34:42.054Z,26.01
2018-02-22T12:35:42.049Z,26.04
2018-02-22T12:36:42.045Z,26.20
2018-02-22T12:37:42.046Z,26.54
2018-02-22T12:38:42.039Z,26.51
2018-02-22T12:39:42.036Z,26.69
2018-02-22T12:40:42.136Z,26.65
2018-02-22T12:41:42.029Z,26.50
2018-02-22T12:42:42.049Z,26.47
2018-02-22T12:43:42.024Z,26.54
2018-02-22T12:44:42.021Z,26.68
2018-02-22T12:45:42.039Z,27.02
2018-02-22T12:46:42.032Z,27.21
2018-02-22T12:47:42.013Z,27.35
2018-02-22T12:48:42.034Z,28.21
2018-02-22T12:49:42.011Z,27.99
2018-02-22T12:50:42.023Z,27.99
2018-02-22T12:51:42.003Z,27.99
2018-02-22T12:52:42.017Z,28.15
2018-02-22T12:53:42.056Z,28.38
2018-02-22T12:54:42.019Z,28.58
2018-02-22T12:55:41.999Z,28.87
2018-02-22T12:56:42.014Z,28.85